Time;durP1;ratioP1;P1;durP2;ratioP2;P2;SDS_P1;SDS_P2;PMS_P1;PMS_P2;Temp;Humidity;BMP_temperature;BMP_pressure;BME280_temperature;BME280_humidity;BME280_pressure;Samples;Min_cycle;Max_cycle;Signal;HPM_P1;HPM_P2
2023/11/15 00:00:06;;;;;;;2.75;0.20;;;;;;;12.29;74.07;99521.22;10398511;28;20033;-59
2023/11/15 00:05:07;;;;;;;0.60;0.10;;;;;;;12.31;73.99;99545.25;10399766;28;20330;-59
2023/11/15 00:10:09;;;;;;;0.38;0.10;;;;;;;12.35;73.81;99554.59;10393633;28;20707;-60
2023/11/15 00:15:10;;;;;;;0.30;0.03;;;;;;;12.45;73.49;99567.66;10382199;28;20045;-60
2023/11/15 00:20:13;;;;;;;0.00;0.00;;;;;;;12.48;73.41;99568.06;10404577;28;20056;-60
2023/11/15 00:25:14;;;;;;;0.50;0.00;;;;;;;12.51;72.86;99574.91;10410145;28;20072;-59
2023/11/15 00:30:19;;;;;;;1.23;0.00;;;;;;;12.51;72.86;99599.16;10401383;28;20050;-60
2023/11/15 00:35:20;;;;;;;1.60;0.10;;;;;;;12.61;72.75;99594.19;10408714;28;20044;-59
2023/11/15 00:40:21;;;;;;;0.50;0.10;;;;;;;12.63;72.66;99612.84;10403219;28;20044;-62
2023/11/15 00:45:24;;;;;;;1.33;0.40;;;;;;;12.66;72.40;99620.53;10391826;28;20483;-62
2023/11/15 00:50:25;;;;;;;0.55;0.10;;;;;;;12.68;72.30;99657.03;10371191;28;20119;-62
2023/11/15 00:55:27;;;;;;;0.65;0.32;;;;;;;12.69;72.40;99665.97;10403533;28;20081;-62
2023/11/15 01:00:37;;;;;;;1.15;0.10;;;;;;;12.69;72.34;99690.22;10404530;28;20049;-61
2023/11/15 01:05:38;;;;;;;0.65;0.10;;;;;;;12.78;71.81;99701.66;10386949;28;20048;-61
2023/11/15 01:10:40;;;;;;;1.33;0.10;;;;;;;12.82;71.55;99703.72;10391684;28;20072;-61
2023/11/15 01:15:41;;;;;;;0.98;0.05;;;;;;;12.87;71.29;99717.44;10375518;28;20389;-61
2023/11/15 01:20:43;;;;;;;1.67;0.00;;;;;;;12.89;71.10;99722.59;10405150;28;20050;-61
2023/11/15 01:25:44;;;;;;;1.25;0.10;;;;;;;12.88;70.59;99732.56;10403178;28;20130;-61
2023/11/15 01:30:46;;;;;;;1.85;0.10;;;;;;;13.02;70.37;99736.09;10393934;28;20041;-61
2023/11/15 01:35:47;;;;;;;1.27;0.10;;;;;;;12.93;69.87;99750.81;10390902;28;20075;-62
2023/11/15 01:40:49;;;;;;;1.02;0.20;;;;;;;13.01;69.50;99761.44;10384416;28;20950;-61
2023/11/15 01:45:51;;;;;;;0.93;0.20;;;;;;;13.03;69.82;99762.06;10388558;28;20064;-62
2023/11/15 01:50:53;;;;;;;2.72;0.15;;;;;;;13.03;69.83;99770.16;10399671;28;20049;-62
2023/11/15 01:55:54;;;;;;;1.35;0.17;;;;;;;13.05;69.38;99773.47;10391870;28;20128;-62
2023/11/15 02:00:56;;;;;;;0.82;0.10;;;;;;;13.06;69.75;99782.41;10384203;28;20037;-62
2023/11/15 02:05:59;;;;;;;3.75;0.10;;;;;;;13.08;69.82;99773.03;10402897;28;20037;-63
2023/11/15 02:11:00;;;;;;;2.75;0.43;;;;;;;12.98;69.85;99785.28;10408447;28;20074;-61
2023/11/15 02:16:02;;;;;;;0.57;0.13;;;;;;;12.95;69.71;99781.13;10397431;28;20037;-63
2023/11/15 02:21:04;;;;;;;1.65;0.17;;;;;;;12.98;69.89;99794.22;10400590;28;20041;-61
2023/11/15 02:26:06;;;;;;;0.47;0.10;;;;;;;12.99;70.26;99805.81;10389452;28;20099;-62
2023/11/15 02:31:10;;;;;;;2.00;0.40;;;;;;;12.89;70.07;99807.06;10365620;28;20140;-62
2023/11/15 02:36:12;;;;;;;2.08;0.20;;;;;;;12.87;70.58;99819.09;10394699;28;20042;-62
2023/11/15 02:41:13;;;;;;;4.05;0.10;;;;;;;12.87;70.28;99821.78;10383094;28;20128;-62
2023/11/15 02:46:22;;;;;;;2.35;0.10;;;;;;;12.84;70.27;99827.59;10385719;28;20057;-62
2023/11/15 02:51:24;;;;;;;1.95;0.20;;;;;;;12.79;70.73;99824.66;10402756;28;20481;-62
2023/11/15 02:56:25;;;;;;;1.63;0.20;;;;;;;12.76;70.97;99833.19;10396175;28;20500;-62
2023/11/15 03:01:27;;;;;;;2.53;0.20;;;;;;;12.70;70.73;99843.75;10406275;28;20045;-60
2023/11/15 03:06:28;;;;;;;4.85;1.00;;;;;;;12.62;71.14;99849.31;10396657;28;20121;-61
2023/11/15 03:11:30;;;;;;;1.90;0.30;;;;;;;12.57;71.22;99850.94;10402827;28;20697;-61
2023/11/15 03:16:31;;;;;;;2.55;0.30;;;;;;;12.63;71.31;99871.72;10402781;28;20037;-61
2023/11/15 03:21:33;;;;;;;2.15;0.30;;;;;;;12.65;71.17;99870.47;10397219;28;20069;-60
2023/11/15 03:26:35;;;;;;;5.65;0.20;;;;;;;12.61;71.16;99868.38;10400798;28;20056;-60
2023/11/15 03:31:37;;;;;;;5.30;0.17;;;;;;;12.55;71.83;99886.19;10395824;28;20481;-61
2023/11/15 03:36:40;;;;;;;3.50;0.10;;;;;;;12.56;71.60;99887.88;10386072;28;20415;-60
2023/11/15 03:41:41;;;;;;;6.07;0.25;;;;;;;12.53;71.76;99890.94;10392869;28;20045;-60
2023/11/15 03:46:43;;;;;;;3.88;0.20;;;;;;;12.49;71.98;99903.16;10398772;28;20070;-61
2023/11/15 03:51:44;;;;;;;0.30;0.20;;;;;;;12.50;71.79;99912.94;10392722;28;20129;-61
2023/11/15 03:56:47;;;;;;;1.52;0.10;;;;;;;12.57;71.77;99911.09;10393483;28;20046;-61
2023/11/15 04:01:49;;;;;;;4.53;0.22;;;;;;;12.55;71.82;99929.34;10393146;28;20056;-61
2023/11/15 04:06:57;;;;;;;5.63;0.28;;;;;;;12.59;71.85;99921.69;10389463;28;20045;-61
2023/11/15 04:11:59;;;;;;;2.70;0.30;;;;;;;12.61;71.92;99928.53;10407085;28;20046;-59
2023/11/15 04:17:01;;;;;;;2.50;0.50;;;;;;;12.62;71.63;99940.16;10393027;28;20460;-59
2023/11/15 04:22:02;;;;;;;8.80;0.32;;;;;;;12.58;71.19;99939.72;10407254;28;20037;-59
2023/11/15 04:27:14;;;;;;;4.72;0.95;;;;;;;12.58;71.11;99945.13;10393610;28;20077;-60
2023/11/15 04:32:15;;;;;;;3.40;0.30;;;;;;;12.52;71.19;99950.47;10400407;28;20064;-59
2023/11/15 04:37:17;;;;;;;2.50;0.30;;;;;;;12.49;71.42;99968.69;10404805;28;20053;-59
2023/11/15 04:42:20;;;;;;;1.77;0.30;;;;;;;12.58;71.11;99961.31;10407951;28;20037;-59
2023/11/15 04:47:21;;;;;;;5.72;1.02;;;;;;;12.61;70.67;99960.06;10400115;28;20460;-59
2023/11/15 04:52:23;;;;;;;3.85;0.13;;;;;;;12.56;70.79;99967.91;10406362;28;20076;-61
2023/11/15 04:57:25;;;;;;;1.60;0.20;;;;;;;12.51;70.76;99973.91;10401324;28;20053;-60
2023/11/15 05:02:27;;;;;;;2.95;0.13;;;;;;;12.48;70.83;99994.00;10411306;28;20049;-58
2023/11/15 05:07:32;;;;;;;3.25;0.30;;;;;;;12.37;70.79;99985.63;10396133;28;20196;-59
2023/11/15 05:12:34;;;;;;;4.70;0.40;;;;;;;12.30;71.23;99993.66;10397430;28;20727;-59
2023/11/15 05:17:36;;;;;;;1.75;0.30;;;;;;;12.24;71.12;99992.59;10400667;28;20046;-59
2023/11/15 05:22:37;;;;;;;3.75;0.50;;;;;;;12.22;71.16;100007.28;10404165;28;20471;-60
2023/11/15 05:27:39;;;;;;;1.77;0.20;;;;;;;12.21;70.72;100011.84;10388951;28;20057;-60
2023/11/15 05:32:41;;;;;;;1.35;0.20;;;;;;;12.20;70.96;100020.94;10400623;28;20040;-60
2023/11/15 05:37:42;;;;;;;4.40;0.50;;;;;;;12.16;70.68;100025.06;10395444;28;20045;-60
2023/11/15 05:42:44;;;;;;;0.95;0.30;;;;;;;12.19;71.02;100019.28;10402663;28;20045;-60
2023/11/15 05:47:46;;;;;;;4.88;0.20;;;;;;;12.16;70.70;100018.84;10401832;28;20049;-60
2023/11/15 05:52:47;;;;;;;3.45;0.30;;;;;;;12.19;70.79;100032.75;10402633;28;20053;-60
2023/11/15 05:57:49;;;;;;;3.65;0.30;;;;;;;12.17;70.39;100032.13;10392447;28;20063;-60
2023/11/15 06:02:51;;;;;;;5.60;0.40;;;;;;;12.22;70.49;100039.63;10399577;28;20046;-60
2023/11/15 06:07:52;;;;;;;3.97;0.65;;;;;;;12.29;70.37;100046.72;10390732;28;20353;-60
2023/11/15 06:12:55;;;;;;;4.18;0.20;;;;;;;12.36;70.22;100049.50;10392974;28;20072;-60
2023/11/15 06:17:56;;;;;;;2.70;0.22;;;;;;;12.40;70.38;100060.69;10384696;28;20042;-60
2023/11/15 06:22:58;;;;;;;2.50;0.20;;;;;;;12.27;70.58;100064.97;10396192;28;20107;-60
2023/11/15 06:28:00;;;;;;;4.32;0.30;;;;;;;12.26;70.28;100078.63;10399410;28;20053;-60
2023/11/15 06:33:01;;;;;;;7.40;0.60;;;;;;;12.26;70.42;100084.00;10398266;28;20560;-62
2023/11/15 06:38:03;;;;;;;2.70;0.20;;;;;;;12.27;70.73;100072.22;10398585;28;20504;-67
2023/11/15 06:43:04;;;;;;;4.65;0.60;;;;;;;12.25;70.58;100079.66;10397228;28;20056;-65
2023/11/15 06:48:07;;;;;;;1.23;0.30;;;;;;;12.25;70.22;100080.50;10397327;28;20053;-60
2023/11/15 06:53:08;;;;;;;7.95;1.48;;;;;;;12.30;70.24;100082.59;10400502;28;20098;-62
2023/11/15 06:58:15;;;;;;;3.28;0.20;;;;;;;12.30;70.42;100083.44;10399442;28;20042;-64
2023/11/15 07:03:18;;;;;;;4.43;0.30;;;;;;;12.27;70.28;100109.94;10393796;28;20515;-65
2023/11/15 07:08:21;;;;;;;4.88;0.32;;;;;;;12.22;69.74;100115.94;10398967;28;20380;-64
2023/11/15 07:13:24;;;;;;;3.15;0.30;;;;;;;12.27;69.50;100120.72;10382601;28;20096;-64
2023/11/15 07:18:26;;;;;;;4.93;0.40;;;;;;;12.33;69.03;100119.13;10401338;28;20041;-64
2023/11/15 07:23:29;;;;;;;4.13;0.50;;;;;;;12.30;68.99;100129.28;10397980;28;20051;-64
2023/11/15 07:28:30;;;;;;;5.32;0.40;;;;;;;12.34;69.09;100126.16;10398727;28;20068;-65
2023/11/15 07:33:32;;;;;;;4.95;1.15;;;;;;;12.31;69.44;100127.41;10427414;28;20093;-66
2023/11/15 07:38:35;;;;;;;4.90;0.30;;;;;;;12.27;69.54;100142.28;10440222;28;20164;-66
2023/11/15 07:43:36;;;;;;;6.97;0.30;;;;;;;12.23;69.13;100136.44;10413615;28;20049;-65
2023/11/15 07:48:39;;;;;;;3.05;0.40;;;;;;;12.29;69.37;100142.94;10403627;28;20049;-65
2023/11/15 07:53:41;;;;;;;9.77;0.52;;;;;;;12.30;69.43;100153.53;10396214;28;20164;-65
2023/11/15 07:58:44;;;;;;;5.03;0.50;;;;;;;12.33;69.68;100159.56;10385697;28;20037;-66
2023/11/15 08:03:46;;;;;;;6.40;0.60;;;;;;;12.44;68.84;100172.50;10403739;28;20042;-65
2023/11/15 08:08:48;;;;;;;4.55;0.45;;;;;;;12.49;69.40;100180.84;10404868;28;20115;-65
2023/11/15 08:13:50;;;;;;;6.00;0.63;;;;;;;12.52;69.01;100185.88;10402975;28;20156;-65
2023/11/15 08:18:53;;;;;;;2.85;0.35;;;;;;;12.55;68.89;100192.75;10383583;28;20069;-65
2023/11/15 08:23:55;;;;;;;8.90;1.05;;;;;;;12.53;69.05;100194.78;10408924;28;20466;-65
2023/11/15 08:28:56;;;;;;;2.17;0.40;;;;;;;12.59;69.00;100204.81;10400694;28;20037;-65
2023/11/15 08:33:58;;;;;;;4.72;0.30;;;;;;;12.73;68.54;100214.69;10406555;28;20042;-65
2023/11/15 08:39:00;;;;;;;1.52;0.30;;;;;;;12.78;68.25;100211.44;10409724;28;20110;-65
2023/11/15 08:44:02;;;;;;;1.42;0.30;;;;;;;12.90;68.24;100217.97;10408581;28;20110;-66
2023/11/15 08:49:04;;;;;;;4.13;0.68;;;;;;;13.04;67.92;100225.13;10395543;28;20046;-66
2023/11/15 08:54:08;;;;;;;2.60;0.38;;;;;;;13.18;67.75;100228.75;10399547;28;20038;-65
2023/11/15 08:59:13;;;;;;;5.45;0.30;;;;;;;13.27;67.31;100230.28;10383393;28;20355;-65
2023/11/15 09:04:16;;;;;;;1.98;0.35;;;;;;;13.35;67.04;100233.88;10405694;28;20049;-63
2023/11/15 09:09:18;;;;;;;4.32;0.20;;;;;;;13.55;66.25;100247.53;10404007;28;20041;-65
2023/11/15 09:14:21;;;;;;;4.88;0.32;;;;;;;13.65;66.13;100248.03;10402583;28;20057;-64
2023/11/15 09:19:24;;;;;;;2.30;0.40;;;;;;;13.80;66.04;100256.00;10380694;28;20045;-64
2023/11/15 09:24:27;;;;;;;5.28;0.60;;;;;;;13.89;65.59;100257.50;10408876;28;20048;-64
2023/11/15 09:29:28;;;;;;;2.28;0.30;;;;;;;13.89;65.32;100258.31;10396100;28;20057;-65
2023/11/15 09:34:30;;;;;;;5.47;0.35;;;;;;;14.05;65.21;100265.25;10403371;28;20069;-65
2023/11/15 09:39:32;;;;;;;3.22;0.30;;;;;;;14.23;64.70;100272.00;10398528;28;20094;-65
2023/11/15 09:44:35;;;;;;;2.22;0.20;;;;;;;14.52;64.13;100259.22;10400765;28;20132;-65
2023/11/15 09:49:38;;;;;;;4.25;0.60;;;;;;;14.65;63.69;100267.38;10401978;28;20050;-65
2023/11/15 09:54:39;;;;;;;1.90;0.38;;;;;;;14.78;62.34;100256.56;10389722;28;20519;-64
2023/11/15 09:59:45;;;;;;;2.30;0.20;;;;;;;14.97;62.04;100273.88;10413702;28;20121;-70
2023/11/15 10:05:21;;;;;;;3.78;0.25;;;;;;;15.21;60.85;100277.84;10378343;28;20049;-71
2023/11/15 10:10:24;;;;;;;2.70;0.50;;;;;;;15.21;60.52;100272.44;10406229;28;20111;-70
2023/11/15 10:15:36;;;;;;;3.25;0.43;;;;;;;15.20;58.92;100284.28;10406345;28;20053;-70
2023/11/15 10:20:38;;;;;;;2.78;0.20;;;;;;;15.27;58.19;100293.25;10399842;28;20041;-68
2023/11/15 10:25:50;;;;;;;2.03;0.40;;;;;;;15.17;56.61;100300.97;10385049;28;20068;-67
2023/11/15 10:31:21;;;;;;;3.25;0.75;;;;;;;15.34;57.09;100298.66;10407725;28;20380;-71
2023/11/15 10:36:23;;;;;;;4.53;0.50;;;;;;;15.35;56.94;100292.22;10398786;28;20041;-69
2023/11/15 10:41:25;;;;;;;3.22;0.30;;;;;;;15.26;56.82;100286.19;10387260;28;20065;-70
2023/11/15 10:46:29;;;;;;;1.05;0.05;;;;;;;15.24;56.40;100291.00;10374258;28;20398;-68
2023/11/15 10:51:41;;;;;;;5.50;0.52;;;;;;;15.41;56.32;100291.38;10388471;28;20041;-70
2023/11/15 10:56:44;;;;;;;2.90;0.17;;;;;;;15.57;56.78;100284.69;10368674;28;20131;-71
2023/11/15 11:01:46;;;;;;;1.55;0.22;;;;;;;15.58;57.79;100285.53;10401595;28;20404;-71
2023/11/15 11:07:16;;;;;;;1.77;0.10;;;;;;;15.64;57.58;100269.28;10391531;28;20576;-71
2023/11/15 11:12:20;;;;;;;2.30;0.20;;;;;;;15.59;57.81;100268.25;10395352;28;20713;-64
2023/11/15 11:17:40;;;;;;;1.35;0.10;;;;;;;15.69;57.49;100262.38;10406814;28;20058;-64
2023/11/15 11:23:19;;;;;;;3.28;0.10;;;;;;;15.76;58.05;100260.53;10409204;28;20038;-63
2023/11/15 11:28:22;;;;;;;1.00;0.15;;;;;;;15.70;57.82;100262.19;10408967;28;20042;-64
2023/11/15 11:33:24;;;;;;;1.63;0.32;;;;;;;15.64;58.13;100282.81;10403293;28;20132;-62
2023/11/15 11:38:38;;;;;;;3.50;0.20;;;;;;;15.62;58.37;100271.38;10406959;28;20054;-61
2023/11/15 11:43:41;;;;;;;4.63;0.57;;;;;;;15.50;58.44;100264.94;10413361;28;20539;-63
2023/11/15 11:48:43;;;;;;;2.25;0.10;;;;;;;15.53;58.34;100264.50;10386294;28;20055;-65
2023/11/15 11:53:46;;;;;;;1.75;0.10;;;;;;;15.54;58.08;100273.44;10409626;28;20128;-63
2023/11/15 11:58:48;;;;;;;2.20;0.10;;;;;;;15.60;57.97;100265.31;10411496;28;20047;-64
2023/11/15 12:03:59;;;;;;;2.20;0.10;;;;;;;15.77;57.28;100252.16;10404141;28;20064;-64
2023/11/15 12:09:01;;;;;;;1.55;0.43;;;;;;;15.78;57.29;100247.59;10392410;28;20049;-63
2023/11/15 12:14:04;;;;;;;1.92;0.10;;;;;;;15.87;57.03;100254.44;10403290;28;20492;-64
2023/11/15 12:19:12;;;;;;;2.50;0.10;;;;;;;15.62;57.21;100265.94;10397359;28;20046;-64
2023/11/15 12:24:17;;;;;;;0.47;0.10;;;;;;;15.42;57.51;100254.28;10387050;28;20059;-64
2023/11/15 12:29:21;;;;;;;1.75;0.17;;;;;;;15.45;57.50;100240.34;10397186;28;20339;-66
2023/11/15 12:34:24;;;;;;;6.60;0.20;;;;;;;15.39;57.25;100238.47;10404462;28;20037;-66
2023/11/15 12:39:35;;;;;;;2.33;0.10;;;;;;;15.46;56.65;100233.84;10403040;28;20041;-66
2023/11/15 12:44:46;;;;;;;1.80;0.20;;;;;;;15.48;57.50;100248.03;10376721;28;20053;-66
2023/11/15 12:49:48;;;;;;;4.82;0.40;;;;;;;15.53;56.60;100244.69;10401203;28;20111;-65
2023/11/15 12:54:56;;;;;;;1.02;0.20;;;;;;;15.75;56.42;100243.41;10380227;28;20049;-65
2023/11/15 12:59:57;;;;;;;4.00;0.20;;;;;;;15.61;56.50;100242.59;10396870;28;20104;-65
2023/11/15 13:05:03;;;;;;;3.80;0.20;;;;;;;15.80;55.90;100237.38;10380621;28;20500;-66
2023/11/15 13:10:05;;;;;;;1.55;0.30;;;;;;;15.73;56.11;100242.81;10403599;28;20061;-66
2023/11/15 13:15:13;;;;;;;2.08;0.22;;;;;;;15.71;55.62;100244.03;10400409;28;20649;-64
2023/11/15 13:20:15;;;;;;;4.13;0.40;;;;;;;15.76;55.21;100249.69;10383598;28;20072;-66
2023/11/15 13:25:16;;;;;;;1.60;0.30;;;;;;;15.61;55.35;100264.25;10403037;28;20041;-64
2023/11/15 13:30:20;;;;;;;2.88;0.10;;;;;;;15.37;53.94;100267.66;10386340;28;20043;-66
2023/11/15 13:35:21;;;;;;;1.27;0.30;;;;;;;15.15;53.86;100294.94;10433918;28;20064;-67
2023/11/15 13:40:24;;;;;;;0.98;0.17;;;;;;;14.88;53.58;100294.88;10423446;28;20052;-67
2023/11/15 13:45:27;;;;;;;1.50;0.10;;;;;;;14.71;52.55;100304.44;10425463;28;20041;-66
2023/11/15 13:50:29;;;;;;;4.80;0.35;;;;;;;14.79;53.42;100295.28;10414776;28;20049;-67
2023/11/15 13:55:30;;;;;;;1.40;0.10;;;;;;;14.78;53.79;100290.94;10432955;28;20048;-66
2023/11/15 14:00:34;;;;;;;0.45;0.20;;;;;;;14.72;53.79;100292.56;10435351;28;20041;-67
2023/11/15 14:05:40;;;;;;;1.10;0.10;;;;;;;14.59;53.75;100304.22;10433980;28;20104;-67
2023/11/15 14:10:42;;;;;;;1.20;0.05;;;;;;;14.52;53.88;100316.00;10430231;28;20643;-68
2023/11/15 14:15:45;;;;;;;2.17;0.10;;;;;;;14.34;54.10;100316.56;10426779;28;20047;-66
2023/11/15 14:20:51;;;;;;;1.05;0.00;;;;;;;14.21;54.47;100320.03;10421044;28;20037;-67
2023/11/15 14:25:53;;;;;;;1.95;0.00;;;;;;;14.14;54.56;100341.63;10439982;28;20108;-67
2023/11/15 14:30:55;;;;;;;1.20;0.10;;;;;;;14.06;54.84;100342.63;10442238;28;20040;-65
2023/11/15 14:35:56;;;;;;;0.90;0.15;;;;;;;13.96;55.55;100358.38;10447462;28;20033;-67
2023/11/15 14:41:00;;;;;;;0.93;0.00;;;;;;;14.03;55.64;100355.69;10434861;28;20077;-66
2023/11/15 14:46:02;;;;;;;3.92;0.65;;;;;;;14.04;55.91;100350.09;10394520;28;20065;-65
2023/11/15 14:51:04;;;;;;;0.77;0.20;;;;;;;14.02;56.10;100362.13;10403959;28;20053;-65
2023/11/15 14:56:07;;;;;;;1.35;0.10;;;;;;;13.98;56.36;100369.81;10382035;28;20041;-66
2023/11/15 15:01:08;;;;;;;2.22;0.20;;;;;;;13.84;56.95;100376.16;10394932;28;20049;-65
2023/11/15 15:06:10;;;;;;;1.50;0.10;;;;;;;13.69;57.56;100376.25;10397525;28;20162;-65
2023/11/15 15:11:14;;;;;;;0.55;0.10;;;;;;;13.57;58.30;100381.34;10399814;28;20065;-67
2023/11/15 15:16:20;;;;;;;1.98;0.13;;;;;;;13.45;58.66;100389.16;10397322;28;20160;-66
2023/11/15 15:21:22;;;;;;;1.10;0.10;;;;;;;13.40;59.20;100404.25;10400688;28;20050;-66
2023/11/15 15:26:24;;;;;;;1.33;0.30;;;;;;;13.34;59.18;100407.72;10402094;28;20042;-66
2023/11/15 15:31:25;;;;;;;3.15;0.20;;;;;;;13.13;60.14;100406.66;10381152;28;20092;-65
2023/11/15 15:36:27;;;;;;;2.05;0.20;;;;;;;13.07;60.63;100410.97;10374421;28;20034;-66
2023/11/15 15:41:28;;;;;;;1.40;0.10;;;;;;;12.94;60.92;100424.28;10380938;28;20523;-66
2023/11/15 15:46:32;;;;;;;1.77;0.10;;;;;;;12.88;61.27;100420.50;10403531;28;20075;-65
2023/11/15 15:51:34;;;;;;;2.25;0.43;;;;;;;12.74;62.04;100425.91;10387064;28;20065;-65
2023/11/15 15:56:35;;;;;;;3.95;0.30;;;;;;;12.64;62.23;100420.81;10394376;28;20056;-65
2023/11/15 16:01:37;;;;;;;1.95;0.20;;;;;;;12.56;62.42;100419.06;10410109;28;20046;-67
2023/11/15 16:06:38;;;;;;;1.45;0.22;;;;;;;12.50;62.89;100427.91;10397618;28;20044;-66
2023/11/15 16:11:40;;;;;;;1.17;0.32;;;;;;;12.39;63.21;100431.88;10410451;28;20506;-65
2023/11/15 16:16:46;;;;;;;0.82;0.30;;;;;;;12.37;63.07;100442.00;10417108;28;20052;-62
2023/11/15 16:21:48;;;;;;;2.67;0.50;;;;;;;12.23;63.74;100440.97;10416510;28;20069;-62
2023/11/15 16:26:49;;;;;;;2.50;0.40;;;;;;;12.07;64.21;100447.38;10423147;28;20041;-62
2023/11/15 16:31:51;;;;;;;2.83;0.30;;;;;;;11.99;64.44;100442.06;10408992;28;20072;-61
2023/11/15 16:36:52;;;;;;;1.38;0.30;;;;;;;11.88;65.18;100454.06;10418734;28;20492;-62
2023/11/15 16:41:54;;;;;;;4.57;1.10;;;;;;;11.81;65.26;100452.28;10418193;28;20059;-62
2023/11/15 16:46:56;;;;;;;1.75;0.60;;;;;;;11.78;65.77;100463.44;10410835;28;20106;-62
2023/11/15 16:51:59;;;;;;;1.38;0.30;;;;;;;11.74;65.93;100478.28;10422682;28;20057;-62
2023/11/15 16:57:04;;;;;;;6.00;0.55;;;;;;;11.70;66.22;100483.19;10420799;28;20562;-62
2023/11/15 17:02:06;;;;;;;5.18;0.43;;;;;;;11.63;66.52;100493.00;10406873;28;20052;-63
2023/11/15 17:07:08;;;;;;;0.60;0.17;;;;;;;11.64;66.24;100494.69;10416934;28;20188;-63
2023/11/15 17:12:13;;;;;;;3.65;0.40;;;;;;;11.61;66.75;100495.88;10402560;28;20045;-62
2023/11/15 17:17:14;;;;;;;0.75;0.25;;;;;;;11.60;66.83;100496.91;10398466;28;20041;-62
2023/11/15 17:22:17;;;;;;;2.95;0.40;;;;;;;11.60;66.78;100501.44;10406975;28;20047;-63
2023/11/15 17:27:22;;;;;;;4.57;0.40;;;;;;;11.62;66.77;100513.72;10393250;28;20045;-63
2023/11/15 17:32:24;;;;;;;6.38;0.60;;;;;;;11.69;66.73;100508.47;10403225;28;20068;-62
2023/11/15 17:37:26;;;;;;;4.57;0.52;;;;;;;11.81;66.75;100512.41;10400203;28;20042;-64
2023/11/15 17:42:28;;;;;;;2.83;0.95;;;;;;;11.82;66.20;100516.75;10406702;28;20183;-64
2023/11/15 17:47:30;;;;;;;5.72;0.60;;;;;;;11.87;66.27;100511.69;10398473;28;20125;-63
2023/11/15 17:52:31;;;;;;;1.95;0.35;;;;;;;12.00;65.53;100508.41;10401234;28;20069;-62
2023/11/15 17:57:33;;;;;;;3.95;0.40;;;;;;;12.02;65.57;100494.75;10387431;28;20404;-62
2023/11/15 18:02:35;;;;;;;3.30;0.57;;;;;;;12.02;65.67;100505.53;10396151;28;20044;-64
2023/11/15 18:07:37;;;;;;;4.28;0.93;;;;;;;12.03;65.50;100510.72;10397644;28;20045;-62
2023/11/15 18:12:40;;;;;;;3.72;0.50;;;;;;;12.08;65.76;100502.09;10413819;28;20103;-62
2023/11/15 18:17:42;;;;;;;2.95;0.40;;;;;;;12.08;65.87;100497.56;10419327;28;20091;-61
2023/11/15 18:22:44;;;;;;;4.10;2.58;;;;;;;12.10;65.58;100506.31;10418142;28;20071;-61
2023/11/15 18:27:47;;;;;;;5.75;0.75;;;;;;;12.13;65.76;100513.19;10420614;28;20048;-62
2023/11/15 18:32:50;;;;;;;3.70;0.77;;;;;;;12.10;66.18;100506.31;10414130;28;20127;-61
2023/11/15 18:37:53;;;;;;;7.45;1.20;;;;;;;12.03;66.03;100512.59;10424594;28;20041;-61
2023/11/15 18:42:59;;;;;;;5.45;1.08;;;;;;;11.97;66.20;100516.84;10410467;28;20041;-62
2023/11/15 18:48:00;;;;;;;5.30;0.75;;;;;;;11.95;66.90;100528.81;10416086;28;20041;-62
2023/11/15 18:53:02;;;;;;;7.13;0.95;;;;;;;11.97;66.33;100541.09;10418091;28;20045;-62
2023/11/15 18:58:08;;;;;;;6.28;0.80;;;;;;;11.86;66.45;100538.78;10416292;28;20055;-61
2023/11/15 19:03:11;;;;;;;4.53;0.85;;;;;;;11.81;66.58;100533.09;10411359;28;20045;-61
2023/11/15 19:08:14;;;;;;;5.63;0.75;;;;;;;11.74;67.02;100540.22;10416359;28;20429;-61
2023/11/15 19:13:16;;;;;;;3.40;1.05;;;;;;;11.78;66.86;100539.69;10412005;28;20041;-61
2023/11/15 19:18:19;;;;;;;3.42;0.90;;;;;;;11.79;67.00;100538.69;10413457;28;20053;-61
2023/11/15 19:23:22;;;;;;;5.95;0.90;;;;;;;11.75;66.96;100531.13;10407191;28;20050;-61
2023/11/15 19:28:24;;;;;;;6.38;0.80;;;;;;;11.69;67.34;100527.31;10411459;28;20045;-61
2023/11/15 19:33:25;;;;;;;7.20;0.88;;;;;;;11.71;67.11;100527.97;10415636;28;20034;-61
2023/11/15 19:38:27;;;;;;;3.83;1.88;;;;;;;11.78;66.76;100517.31;10424899;28;20156;-61
2023/11/15 19:43:28;;;;;;;4.63;1.17;;;;;;;11.87;67.18;100508.97;10422352;28;20053;-61
2023/11/15 19:48:30;;;;;;;4.43;0.57;;;;;;;11.91;66.68;100514.88;10425610;28;20050;-61
2023/11/15 19:53:31;;;;;;;3.65;0.80;;;;;;;11.82;66.92;100521.31;10423790;28;20060;-61
2023/11/15 19:58:33;;;;;;;4.32;0.70;;;;;;;11.78;67.22;100528.91;10425762;28;20064;-61
2023/11/15 20:03:34;;;;;;;3.75;0.80;;;;;;;11.77;67.27;100524.56;10421432;28;20048;-61
2023/11/15 20:08:36;;;;;;;2.25;0.50;;;;;;;11.81;67.30;100538.47;10406141;28;20498;-61
2023/11/15 20:13:39;;;;;;;1.15;0.65;;;;;;;11.79;67.87;100524.34;10395296;28;20048;-61
2023/11/15 20:18:42;;;;;;;2.40;0.40;;;;;;;11.76;67.96;100524.72;10415762;28;20033;-61
2023/11/15 20:23:43;;;;;;;4.10;1.13;;;;;;;11.68;68.03;100526.44;10406364;28;20121;-60
2023/11/15 20:28:45;;;;;;;2.78;0.60;;;;;;;11.57;68.20;100529.56;10412243;28;20042;-60
2023/11/15 20:33:47;;;;;;;2.83;0.45;;;;;;;11.56;68.45;100543.22;10415520;28;20034;-62
2023/11/15 20:38:48;;;;;;;5.28;0.60;;;;;;;11.49;68.13;100534.97;10415389;28;20106;-61
2023/11/15 20:43:50;;;;;;;7.25;0.65;;;;;;;11.40;68.73;100530.69;10390881;28;20065;-62
2023/11/15 20:48:53;;;;;;;1.33;0.47;;;;;;;11.36;68.47;100543.66;10408353;28;20048;-63
2023/11/15 20:53:55;;;;;;;8.05;1.13;;;;;;;11.32;68.72;100539.63;10400083;28;20049;-62
2023/11/15 20:58:57;;;;;;;4.07;0.52;;;;;;;11.29;68.96;100542.66;10413706;28;20049;-63
2023/11/15 21:03:59;;;;;;;4.28;0.70;;;;;;;11.23;69.20;100543.38;10393134;28;20042;-62
2023/11/15 21:09:02;;;;;;;2.28;0.50;;;;;;;11.20;69.35;100538.34;10406385;28;20049;-62
2023/11/15 21:14:04;;;;;;;1.67;0.40;;;;;;;11.23;69.88;100538.00;10389123;28;20077;-63
2023/11/15 21:19:06;;;;;;;5.28;0.50;;;;;;;11.24;69.47;100548.59;10372511;28;20053;-63
2023/11/15 21:24:11;;;;;;;3.72;0.47;;;;;;;11.25;69.81;100547.56;10410709;28;20061;-64
2023/11/15 21:29:13;;;;;;;2.58;0.50;;;;;;;11.13;70.31;100543.59;10413711;28;20041;-64
2023/11/15 21:34:16;;;;;;;2.67;0.32;;;;;;;11.15;70.13;100541.56;10375532;28;20057;-65
2023/11/15 21:39:18;;;;;;;2.47;0.50;;;;;;;11.17;70.30;100544.91;10388888;28;20705;-64
2023/11/15 21:44:19;;;;;;;2.13;0.82;;;;;;;11.19;70.13;100544.75;10411030;28;20534;-63
2023/11/15 21:49:21;;;;;;;5.47;0.98;;;;;;;11.16;69.78;100547.78;10408369;28;20128;-64
2023/11/15 21:54:24;;;;;;;6.55;1.00;;;;;;;11.02;70.11;100550.19;10395026;28;20043;-64
2023/11/15 21:59:25;;;;;;;2.45;0.50;;;;;;;10.97;70.21;100543.66;10400261;28;20045;-63
2023/11/15 22:04:27;;;;;;;3.83;0.30;;;;;;;10.93;70.26;100531.56;10373227;28;20537;-64
2023/11/15 22:09:28;;;;;;;1.67;0.50;;;;;;;10.86;70.10;100529.59;10407849;28;20127;-63
2023/11/15 22:14:30;;;;;;;2.08;0.40;;;;;;;10.80;70.21;100542.88;10403472;28;20129;-64
2023/11/15 22:19:33;;;;;;;3.58;0.40;;;;;;;10.76;70.16;100534.28;10404344;28;20049;-64
2023/11/15 22:24:34;;;;;;;0.43;0.20;;;;;;;10.67;70.06;100525.44;10399542;28;20052;-64
2023/11/15 22:29:36;;;;;;;3.75;0.40;;;;;;;10.62;70.30;100530.47;10402691;28;20102;-64
2023/11/15 22:34:37;;;;;;;2.28;0.60;;;;;;;10.57;69.77;100537.41;10371556;28;20044;-65
2023/11/15 22:39:38;;;;;;;6.07;0.50;;;;;;;10.51;69.86;100539.75;10399087;28;20042;-63
2023/11/15 22:44:40;;;;;;;3.45;0.40;;;;;;;10.45;69.76;100535.06;10397829;28;20045;-64
2023/11/15 22:49:42;;;;;;;1.85;0.52;;;;;;;10.39;69.68;100538.44;10386542;28;20048;-61
2023/11/15 22:54:43;;;;;;;9.00;0.63;;;;;;;10.29;69.99;100535.06;10403608;28;20048;-62
2023/11/15 22:59:45;;;;;;;2.78;0.40;;;;;;;10.22;70.44;100534.88;10373634;28;20049;-62
2023/11/15 23:04:49;;;;;;;2.95;0.43;;;;;;;10.12;70.24;100535.03;10400675;28;20069;-62
2023/11/15 23:09:51;;;;;;;6.70;0.43;;;;;;;10.08;70.39;100538.25;10414324;28;20053;-62
2023/11/15 23:14:53;;;;;;;1.80;0.40;;;;;;;10.04;70.38;100543.13;10404052;28;20042;-61